Time;durP1;ratioP1;P1;durP2;ratioP2;P2;SDS_P1;SDS_P2;PMS_P1;PMS_P2;Temp;Humidity;BMP_temperature;BMP_pressure;BME280_temperature;BME280_humidity;BME280_pressure;Samples;Min_cycle;Max_cycle;Signal;HPM_P1;HPM_P2
2020/12/10 00:01:50;;;;;;;12.13;5.20;;;6.20;99.90;;;;;;3525235;33;20144;-90
2020/12/10 00:04:28;;;;;;;14.95;8.20;;;;;;;;;;3516508;33;20144;-90
2020/12/10 00:07:00;;;;;;;26.08;5.72;;;;;;;;;;3493832;41;20116;-89
2020/12/10 00:09:54;;;;;;;16.52;5.40;;;6.40;99.90;;;;;;3509698;33;20599;-90
2020/12/10 00:12:24;;;;;;;13.20;4.38;;;;;;;;;;3507620;41;20116;-89
2020/12/10 00:14:55;;;;;;;22.85;6.65;;;;;;;;;;3495889;33;20124;-91
2020/12/10 00:17:28;;;;;;;22.25;5.60;;;;;;;;;;3504606;33;20511;-90
2020/12/10 00:19:57;;;;;;;12.23;5.80;;;;;;;;;;3529009;33;20143;-91
2020/12/10 00:22:25;;;;;;;23.65;7.82;;;;;;;;;;3510744;41;20131;-91
2020/12/10 00:24:55;;;;;;;27.00;5.68;;;;;;;;;;3498104;40;20119;-91
2020/12/10 00:27:24;;;;;;;15.90;4.68;;;6.50;99.90;;;;;;3496739;33;20132;-92
2020/12/10 00:29:56;;;;;;;17.98;5.50;;;;;;;;;;3501716;40;20127;-90
2020/12/10 00:32:27;;;;;;;16.92;5.88;;;;;;;;;;3545683;33;20177;-89
2020/12/10 00:34:55;;;;;;;18.30;5.65;;;;;;;;;;3500839;33;20143;-92
2020/12/10 00:37:28;;;;;;;23.73;5.75;;;6.60;99.90;;;;;;3495786;33;20612;-93
2020/12/10 00:39:56;;;;;;;21.25;5.63;;;;;;;;;;3509025;33;20136;-90
2020/12/10 00:42:24;;;;;;;16.13;6.93;;;;;;;;;;3502708;33;20611;-91
2020/12/10 00:44:53;;;;;;;17.98;7.68;;;;;;;;;;3505960;33;20128;-91
2020/12/10 00:47:21;;;;;;;20.95;7.32;;;;;;;;;;3501570;33;20124;-90
2020/12/10 00:49:52;;;;;;;18.00;5.38;;;;;;;;;;3518041;33;20153;-92
2020/12/10 00:52:25;;;;;;;12.13;6.32;;;6.60;99.90;;;;;;3522923;33;20136;-91
2020/12/10 00:54:58;;;;;;;11.95;4.85;;;;;;;;;;3508628;40;20135;-90
2020/12/10 00:57:31;;;;;;;19.92;7.15;;;;;;;;;;3529969;33;20171;-92
2020/12/10 00:59:59;;;;;;;17.95;5.93;;;;;;;;;;3508078;33;20128;-90
2020/12/10 01:02:29;;;;;;;15.48;4.95;;;;;;;;;;3509045;33;20135;-89
2020/12/10 01:05:24;;;;;;;14.82;5.07;;;;;;;;;;3525404;40;20135;-90
2020/12/10 01:07:52;;;;;;;15.55;5.10;;;6.70;99.90;;;;;;3500968;40;20135;-90
2020/12/10 01:10:19;;;;;;;20.42;4.45;;;;;;;;;;3514110;33;20140;-92
2020/12/10 01:12:47;;;;;;;19.30;4.88;;;;;;;;;;3492617;33;20144;-92
2020/12/10 01:15:14;;;;;;;27.42;6.45;;;;;;;;;;3501300;33;20116;-91
2020/12/10 01:17:43;;;;;;;14.38;4.72;;;;;;;;;;3512196;33;20151;-90
2020/12/10 01:20:11;;;;;;;11.70;4.75;;;;;;;;;;3502132;33;20129;-91
2020/12/10 01:22:39;;;;;;;14.27;4.53;;;;;;;;;;3509339;33;20139;-91
2020/12/10 01:25:07;;;;;;;10.27;4.78;;;;;;;;;;3519359;33;20511;-90
2020/12/10 01:27:35;;;;;;;9.27;6.05;;;;;;;;;;3509844;33;20136;-91
2020/12/10 01:30:04;;;;;;;14.48;4.38;;;6.80;99.90;;;;;;3503718;40;20220;-93
2020/12/10 01:32:34;;;;;;;14.80;5.50;;;;;;;;;;3510926;33;20168;-90
2020/12/10 01:35:01;;;;;;;18.88;4.35;;;;;;;;;;3502826;41;20897;-89
2020/12/10 01:37:29;;;;;;;15.85;3.97;;;;;;;;;;3505715;33;20159;-90
2020/12/10 01:39:58;;;;;;;19.50;4.25;;;;;;;;;;3502889;33;20139;-91
2020/12/10 01:42:26;;;;;;;16.58;4.93;;;;;;;;;;3487202;41;20140;-89
2020/12/10 01:44:53;;;;;;;5.90;3.22;;;;;;;;;;3504424;33;20152;-91
2020/12/10 01:47:27;;;;;;;7.70;3.80;;;6.90;99.90;;;;;;3498908;41;20668;-91
2020/12/10 01:49:57;;;;;;;12.82;4.53;;;;;;;;;;3490254;33;20157;-90
2020/12/10 01:52:25;;;;;;;10.60;3.65;;;;;;;;;;3498224;33;20137;-92
2020/12/10 01:54:53;;;;;;;16.33;4.20;;;;;;;;;;3495968;33;20144;-92
2020/12/10 01:57:22;;;;;;;16.65;5.63;;;;;;;;;;3494301;33;20104;-91
2020/12/10 01:59:51;;;;;;;12.80;3.40;;;;;;;;;;3510714;33;20131;-90
2020/12/10 02:02:19;;;;;;;20.58;3.75;;;;;;;;;;3521828;33;20120;-90
2020/12/10 02:04:47;;;;;;;19.15;3.83;;;;;;;;;;3497799;41;20141;-90
2020/12/10 02:07:15;;;;;;;8.85;3.92;;;;;;;;;;3488828;33;20144;-91
2020/12/10 02:09:42;;;;;;;15.23;4.00;;;;;;;;;;3499280;33;20162;-92
2020/12/10 02:12:10;;;;;;;8.32;3.67;;;;;;;;;;3508360;33;20148;-91
2020/12/10 02:14:38;;;;;;;16.92;4.90;;;;;;;;;;3518520;33;20176;-89
2020/12/10 02:17:07;;;;;;;12.35;4.45;;;7.00;99.90;;;;;;3522767;33;20636;-91
2020/12/10 02:19:36;;;;;;;17.70;4.35;;;;;;;;;;3507533;33;20581;-90
2020/12/10 02:22:05;;;;;;;17.10;4.63;;;;;;;;;;3505749;41;20137;-91
2020/12/10 02:24:32;;;;;;;22.23;3.80;;;;;;;;;;3513443;33;20130;-90
2020/12/10 02:27:00;;;;;;;7.35;3.25;;;;;;;;;;3537587;33;20148;-91
2020/12/10 02:29:28;;;;;;;11.68;3.85;;;;;;;;;;3506590;41;20143;-90
2020/12/10 02:31:57;;;;;;;12.55;3.42;;;;;;;;;;3525265;33;20159;-91
2020/12/10 02:34:26;;;;;;;8.63;4.03;;;;;;;;;;3500783;33;20143;-91
2020/12/10 02:36:53;;;;;;;11.60;4.82;;;;;;;;;;3495252;33;20141;-91
2020/12/10 02:39:21;;;;;;;18.42;4.55;;;;;;;;;;3513342;33;20167;-90
2020/12/10 02:41:49;;;;;;;11.00;4.13;;;;;;;;;;3515335;33;20137;-90
2020/12/10 02:44:18;;;;;;;13.50;3.28;;;;;;;;;;3509148;33;20147;-90
2020/12/10 02:46:46;;;;;;;21.77;7.22;;;;;;;;;;3509565;33;20589;-90
2020/12/10 02:49:14;;;;;;;8.68;3.55;;;;;;;;;;3511501;33;20120;-90
2020/12/10 02:51:44;;;;;;;47.53;6.35;;;;;;;;;;3498876;33;20200;-91
2020/12/10 02:54:12;;;;;;;18.20;4.57;;;;;;;;;;3521004;33;20144;-91
2020/12/10 02:56:40;;;;;;;21.48;5.03;;;;;;;;;;3506860;40;20123;-92
2020/12/10 02:59:07;;;;;;;16.73;3.55;;;;;;;;;;3527839;33;20159;-90
2020/12/10 03:01:36;;;;;;;16.17;4.78;;;;;;;;;;3499428;33;20155;-92
2020/12/10 03:04:04;;;;;;;13.80;7.82;;;;;;;;;;3502683;33;20127;-90
2020/12/10 03:06:32;;;;;;;11.13;4.32;;;6.90;99.90;;;;;;3485594;40;20203;-91
2020/12/10 03:09:01;;;;;;;13.50;3.97;;;;;;;;;;3501158;33;20136;-91
2020/12/10 03:11:29;;;;;;;21.80;5.35;;;;;;;;;;3508630;33;20127;-92
2020/12/10 03:13:57;;;;;;;15.77;3.95;;;;;;;;;;3491585;33;20140;-89
2020/12/10 03:16:25;;;;;;;16.98;5.28;;;;;;;;;;3506859;41;20212;-90
2020/12/10 03:18:53;;;;;;;7.53;3.67;;;;;;;;;;3516228;33;20144;-93
2020/12/10 03:21:22;;;;;;;15.18;5.72;;;;;;;;;;3489674;41;20149;-92
2020/12/10 03:23:50;;;;;;;26.60;5.55;;;;;;;;;;3498478;41;20140;-91
2020/12/10 03:26:18;;;;;;;14.90;4.80;;;;;;;;;;3513774;33;20108;-90
2020/12/10 03:28:46;;;;;;;27.17;7.30;;;;;;;;;;3506579;33;20111;-91
2020/12/10 03:31:13;;;;;;;27.10;6.25;;;;;;;;;;3507599;33;20135;-91
2020/12/10 03:33:44;;;;;;;15.68;4.05;;;;;;;;;;3511232;33;20636;-91
2020/12/10 03:36:12;;;;;;;18.08;6.82;;;;;;;;;;3487443;41;20164;-90
2020/12/10 03:38:40;;;;;;;15.27;4.18;;;;;;;;;;3507384;33;20188;-93
2020/12/10 03:41:10;;;;;;;14.27;4.90;;;;;;;;;;3506813;33;20137;-90
2020/12/10 03:43:39;;;;;;;26.27;6.60;;;;;;;;;;3501969;33;20136;-89
2020/12/10 03:46:08;;;;;;;18.83;6.18;;;;;;;;;;3495852;33;20245;-91
2020/12/10 03:48:35;;;;;;;14.25;3.78;;;;;;;;;;3500776;33;20120;-89
2020/12/10 03:51:05;;;;;;;15.10;5.03;;;;;;;;;;3541360;33;20148;-91
2020/12/10 03:53:33;;;;;;;12.68;4.22;;;;;;;;;;3496031;33;20152;-92
2020/12/10 03:56:01;;;;;;;21.08;6.53;;;;;;;;;;3502174;33;20153;-92
2020/12/10 03:58:28;;;;;;;11.88;4.93;;;;;;;;;;3488517;33;20140;-90
2020/12/10 04:00:56;;;;;;;18.33;6.10;;;;;;;;;;3487310;41;20136;-91
2020/12/10 04:03:24;;;;;;;14.20;4.55;;;;;;;;;;3499584;33;20141;-91
2020/12/10 04:05:51;;;;;;;24.45;6.72;;;;;;;;;;3495863;33;20137;-90
2020/12/10 04:08:33;;;;;;;23.98;5.10;;;;;;;;;;3498215;33;20179;-91
2020/12/10 04:11:03;;;;;;;20.98;6.65;;;;;;;;;;3487986;33;20123;-90
2020/12/10 04:13:31;;;;;;;20.38;5.45;;;;;;;;;;3505361;33;20140;-92
2020/12/10 04:16:02;;;;;;;14.38;5.97;;;6.80;99.90;;;;;;3501463;33;20141;-91
2020/12/10 04:18:31;;;;;;;16.73;5.13;;;;;;;;;;3513338;33;20096;-92
2020/12/10 04:20:58;;;;;;;16.25;4.28;;;;;;;;;;3514508;33;20124;-91
2020/12/10 04:23:28;;;;;;;17.13;4.32;;;;;;;;;;3513104;33;20127;-92
2020/12/10 04:25:57;;;;;;;21.33;5.83;;;;;;;;;;3500480;41;20120;-91
2020/12/10 04:28:26;;;;;;;14.57;6.80;;;;;;;;;;3525753;33;20115;-91
2020/12/10 04:30:53;;;;;;;23.90;5.47;;;;;;;;;;3485206;41;20148;-91
2020/12/10 04:33:21;;;;;;;18.10;5.55;;;;;;;;;;3504890;33;20136;-91
2020/12/10 04:35:49;;;;;;;21.02;6.50;;;;;;;;;;3500903;33;20129;-92
2020/12/10 04:38:18;;;;;;;21.30;6.72;;;;;;;;;;3494924;33;20132;-89
2020/12/10 04:40:45;;;;;;;25.60;6.30;;;;;;;;;;3486976;33;20153;-92
2020/12/10 04:43:14;;;;;;;44.33;8.13;;;;;;;;;;3522750;33;20131;-91
2020/12/10 04:45:43;;;;;;;23.05;7.10;;;;;;;;;;3516470;33;20136;-91
2020/12/10 04:48:12;;;;;;;19.55;7.93;;;;;;;;;;3505289;33;20682;-92
2020/12/10 04:50:40;;;;;;;15.27;5.38;;;;;;;;;;3493340;41;20176;-92
2020/12/10 04:53:08;;;;;;;20.83;7.47;;;;;;;;;;3475823;41;20123;-90
2020/12/10 04:55:36;;;;;;;22.95;6.47;;;;;;;;;;3490533;33;20167;-90
2020/12/10 04:58:05;;;;;;;18.90;6.85;;;;;;;;;;3491022;41;20132;-89
2020/12/10 05:00:36;;;;;;;22.23;7.13;;;;;;;;;;3508941;33;20160;-93
2020/12/10 05:03:07;;;;;;;35.92;7.25;;;;;;;;;;3505101;33;20156;-90
2020/12/10 05:05:35;;;;;;;24.40;8.82;;;;;;;;;;3488160;33;20141;-92
2020/12/10 05:08:03;;;;;;;18.52;6.35;;;;;;;;;;3505788;33;20161;-91
2020/12/10 05:10:44;;;;;;;14.73;7.07;;;6.60;99.90;;;;;;3494720;33;20124;-90
2020/12/10 05:13:12;;;;;;;;;;;6.50;99.90;;;;;;3495076;33;20184;-89
2020/12/10 05:15:41;;;;;;;20.00;8.45;;;;;;;;;;3500980;33;20494;-91
2020/12/10 05:18:11;;;;;;;14.40;6.80;;;6.50;99.90;;;;;;3501488;33;20125;-91
2020/12/10 05:20:45;;;;;;;24.25;7.25;;;6.40;99.90;;;;;;3507876;33;20128;-90
2020/12/10 05:23:15;;;;;;;20.35;9.68;;;6.50;99.90;;;;;;3507645;33;20195;-91
2020/12/10 05:25:52;;;;;;;21.42;7.18;;;6.50;99.90;;;;;;3495258;33;20155;-90
2020/12/10 05:28:22;;;;;;;16.23;7.85;;;6.40;99.90;;;;;;3505427;33;20119;-91
2020/12/10 05:31:07;;;;;;;18.40;7.07;;;6.40;99.90;;;;;;3493258;33;20156;-91
2020/12/10 05:33:37;;;;;;;23.83;7.75;;;;;;;;;;3490268;33;20142;-90
2020/12/10 05:36:12;;;;;;;27.45;8.65;;;6.30;99.90;;;;;;3511403;33;20172;-90
2020/12/10 05:38:56;;;;;;;21.15;8.30;;;;;;;;;;3512905;33;20119;-89
2020/12/10 05:41:26;;;;;;;19.20;7.05;;;;;;;;;;3498244;33;20129;-89
2020/12/10 05:43:55;;;;;;;;;;;6.30;99.90;;;;;;3493467;41;20129;-91
2020/12/10 05:46:26;;;;;;;29.27;8.68;;;6.30;99.90;;;;;;3482648;33;20033;-92
2020/12/10 05:49:00;;;;;;;24.52;7.72;;;;;;;;;;3493158;33;20144;-91
2020/12/10 05:51:38;;;;;;;19.67;7.88;;;6.20;99.90;;;;;;3486937;41;20148;-91
2020/12/10 05:54:10;;;;;;;18.50;9.00;;;6.10;99.90;;;;;;3500657;33;20164;-92
2020/12/10 05:57:02;;;;;;;22.98;10.32;;;6.30;99.90;;;;;;3501383;33;20133;-91
2020/12/10 05:59:32;;;;;;;35.13;11.25;;;6.20;99.90;;;;;;3491810;33;20539;-91
2020/12/10 06:02:07;;;;;;;26.85;10.95;;;6.20;99.90;;;;;;3487518;33;20136;-90
2020/12/10 06:04:36;;;;;;;29.40;11.05;;;;;;;;;;3502584;33;20464;-91
2020/12/10 06:07:04;;;;;;;28.88;10.65;;;;;;;;;;3493195;33;20137;-92
2020/12/10 06:09:33;;;;;;;18.67;10.00;;;;;;;;;;3506219;33;20137;-93
2020/12/10 06:12:05;;;;;;;25.70;10.07;;;6.30;99.90;;;;;;3503655;41;20165;-91
2020/12/10 06:15:01;;;;;;;21.88;9.35;;;6.20;99.90;;;;;;3494967;33;20156;-88
2020/12/10 06:17:29;;;;;;;22.17;10.13;;;;;;;;;;3489950;33;20125;-92
2020/12/10 06:19:59;;;;;;;32.38;10.27;;;;;;;;;;3498189;33;20161;-90
2020/12/10 06:22:31;;;;;;;33.58;10.75;;;6.20;99.90;;;;;;3499992;33;20148;-90
2020/12/10 06:25:29;;;;;;;28.23;11.73;;;6.30;99.90;;;;;;3497655;33;20124;-91
2020/12/10 06:28:16;;;;;;;25.23;9.32;;;6.30;99.90;;;;;;3501410;33;20112;-89
2020/12/10 06:31:07;;;;;;;32.03;11.23;;;6.30;99.90;;;;;;3485539;33;20625;-92
2020/12/10 06:33:43;;;;;;;34.03;12.77;;;6.30;99.90;;;;;;3508785;33;20120;-92
2020/12/10 06:36:21;;;;;;;22.30;9.60;;;6.30;99.90;;;;;;3502938;33;20259;-92
2020/12/10 06:38:50;;;;;;;24.63;10.70;;;6.40;99.90;;;;;;3513724;33;20159;-91
2020/12/10 06:41:18;;;;;;;23.67;11.57;;;;;;;;;;3511601;33;20133;-92
2020/12/10 06:43:49;;;;;;;25.70;8.77;;;;;;;;;;3495671;41;20113;-91
2020/12/10 06:46:19;;;;;;;24.73;10.83;;;;;;;;;;3505222;33;20135;-91
2020/12/10 06:48:48;;;;;;;30.58;11.25;;;;;;;;;;3507339;33;20140;-90
2020/12/10 06:51:18;;;;;;;28.13;11.00;;;6.30;99.90;;;;;;3487334;40;20165;-92
2020/12/10 06:54:01;;;;;;;24.27;9.52;;;;;;;;;;3499030;40;20604;-91
2020/12/10 06:56:29;;;;;;;29.65;12.07;;;;;;;;;;3490242;33;20148;-91
2020/12/10 06:59:03;;;;;;;25.73;9.65;;;;;;;;;;3512794;33;20167;-91
2020/12/10 07:01:35;;;;;;;28.52;10.80;;;6.20;99.90;;;;;;3507852;33;20148;-90
2020/12/10 07:04:09;;;;;;;30.73;12.73;;;;;;;;;;3497350;40;20124;-89
2020/12/10 07:06:36;;;;;;;23.17;9.88;;;;;;;;;;3498870;40;20155;-90
2020/12/10 07:09:04;;;;;;;26.20;11.60;;;;;;;;;;3507278;33;20218;-92
2020/12/10 07:11:32;;;;;;;32.08;10.00;;;;;;;;;;3504016;33;20147;-89
2020/12/10 07:14:00;;;;;;;32.00;10.27;;;;;;;;;;3503423;33;20148;-89
2020/12/10 07:16:33;;;;;;;26.67;10.30;;;;;;;;;;3518430;33;20515;-92
2020/12/10 07:19:02;;;;;;;23.42;11.07;;;;;;;;;;3499126;41;20320;-92
2020/12/10 07:21:31;;;;;;;30.05;12.23;;;;;;;;;;3498556;40;20140;-90
2020/12/10 07:24:01;;;;;;;36.30;12.95;;;;;;;;;;3489205;33;20186;-91
2020/12/10 07:26:30;;;;;;;31.95;10.63;;;;;;;;;;3513608;33;20151;-93
2020/12/10 07:29:00;;;;;;;24.02;9.77;;;;;;;;;;3514523;33;20108;-94
2020/12/10 07:31:37;;;;;;;40.22;13.63;;;;;;;;;;3508316;33;20591;-94
2020/12/10 07:34:13;;;;;;;21.95;9.77;;;;;;;;;;3491615;41;20174;-94
2020/12/10 07:36:53;;;;;;;31.73;13.15;;;6.80;99.90;;;;;;3502018;33;20144;-93
2020/12/10 07:39:28;;;;;;;33.78;15.32;;;;;;;;;;3480300;33;20131;-92
2020/12/10 07:41:57;;;;;;;29.95;12.88;;;;;;;;;;3505654;33;20136;-92
2020/12/10 07:44:29;;;;;;;34.00;12.40;;;;;;;;;;3488535;33;20605;-89
2020/12/10 07:47:10;;;;;;;30.15;13.00;;;;;;;;;;3505398;33;20127;-92
2020/12/10 07:49:44;;;;;;;32.00;13.77;;;;;;;;;;3503451;33;20433;-92
2020/12/10 07:53:07;;;;;;;41.58;15.32;;;;;;;;;;3523726;33;20113;-91
2020/12/10 07:56:00;;;;;;;35.75;15.40;;;;;;;;;;3524200;33;20112;-88
2020/12/10 07:58:43;;;;;;;26.08;12.40;;;6.60;99.90;;;;;;3481085;41;20145;-90
2020/12/10 08:01:51;;;;;;;32.50;15.65;;;;;;;;;;3490403;41;20117;-94
2020/12/10 08:09:16;;;;;;;34.35;16.52;;;;;;;;;;3601909;33;20104;-92
2020/12/10 08:16:12;;;;;;;37.58;21.35;;;;;;;;;;3494630;41;20116;-93
2020/12/10 08:19:23;;;;;;;38.28;16.33;;;;;;;;;;3512274;33;20291;-92
2020/12/10 08:25:53;;;;;;;40.35;18.25;;;;;;;;;;3664111;27;20111;-93
2020/12/10 08:29:35;;;;;;;37.33;16.67;;;6.90;99.90;;;;;;3574879;35;20080;-91
2020/12/10 08:32:33;;;;;;;38.35;15.40;;;6.70;99.90;;;;;;3517308;40;20083;-92
2020/12/10 08:35:16;;;;;;;36.42;15.98;;;;;;;;;;3557651;33;20104;-94
2020/12/10 08:38:30;;;;;;;43.50;13.95;;;;;;;;;;3626999;33;20109;-95
2020/12/10 08:42:11;;;;;;;33.85;16.27;;;;;;;;;;3545395;28;21488;-94
2020/12/10 08:53:25;;;;;;;45.00;12.55;;;;;;;;;;3489957;41;20077;-93
2020/12/10 09:00:16;;;;;;;28.13;13.35;;;6.80;99.90;;;;;;2859671;31;20064;31
2020/12/10 09:08:09;;;;;;;33.45;14.43;;;6.90;99.90;;;;;;3448757;34;20102;-94
2020/12/10 09:37:22;;;;;;;34.58;11.88;;;;;;;;;;1173234;31;20104;-92
2020/12/10 09:40:31;;;;;;;25.67;11.80;;;;;;;;;;3515280;33;20112;-92
2020/12/10 09:44:40;;;;;;;26.27;11.88;;;;;;;;;;3519189;40;20121;-94
2020/12/10 09:58:13;;;;;;;35.17;12.95;;;;;;;;;;553634;38;20402;-92
2020/12/10 10:01:15;;;;;;;44.33;13.00;;;;;;;;;;3622576;33;20096;-92
2020/12/10 10:04:57;;;;;;;28.75;11.75;;;;;;;;;;3484191;41;20144;-93
2020/12/10 10:08:11;;;;;;;34.85;13.93;;;;;;;;;;3639125;34;20091;-91
2020/12/10 10:14:25;;;;;;;27.42;11.30;;;;;;;;;;3569146;27;20065;-94
2020/12/10 10:24:26;;;;;;;22.65;10.93;;;;;;;;;;3813386;27;20100;-93
2020/12/10 10:27:50;;;;;;;30.88;11.68;;;;;;;;;;3534312;35;20147;-91
2020/12/10 10:31:02;;;;;;;25.70;10.20;;;;;;;;;;3595228;35;20195;-93
2020/12/10 10:34:43;;;;;;;25.75;10.43;;;;;;;;;;3540966;33;20124;-91
2020/12/10 10:40:56;;;;;;;27.08;10.43;;;;;;;;;;3857634;27;20136;-92
2020/12/10 10:44:30;;;;;;;26.38;9.63;;;;;;;;;;3501135;41;20120;-90
2020/12/10 11:09:58;;;;;;;33.10;10.45;;;;;;;;;;3530242;33;20477;-92
2020/12/10 11:13:16;;;;;;;28.70;12.57;;;;;;;;;;3477530;41;20096;-91
2020/12/10 11:17:00;;;;;;;18.80;9.13;;;;;;;;;;3487866;41;20149;-93
2020/12/10 11:20:42;;;;;;;29.25;9.60;;;;;;;;;;3501723;41;20100;-94
2020/12/10 11:27:30;;;;;;;32.90;10.05;;;;;;;;;;1258026;35;20596;-94
2020/12/10 11:30:43;;;;;;;23.73;9.48;;;;;;;;;;3493610;41;20074;-92
2020/12/10 11:34:06;;;;;;;25.27;10.32;;;;;;;;;;3525582;33;20152;-94
2020/12/10 11:37:04;;;;;;;18.85;8.07;;;;;;;;;;3500280;33;20117;-93
2020/12/10 12:25:04;;;;;;;23.73;9.65;;;;;;;;;;3811266;28;20116;-90
2020/12/10 13:07:52;;;;;;;23.83;10.32;;;;;;;;;;3963254;28;20143;-92
2020/12/10 13:29:07;;;;;;;27.85;10.50;;;;;;;;;;2319126;31;20089;-94
2020/12/10 13:32:07;;;;;;;34.13;10.88;;;;;;;;;;3480735;41;20084;-93
2020/12/10 13:36:43;;;;;;;;;;;;;;;;;;;;;
2020/12/10 13:43:13;;;;;;;29.70;12.45;;;;;;;;;;3494737;33;20120;-93
2020/12/10 13:46:49;;;;;;;24.30;10.93;;;7.60;99.90;;;;;;3504804;33;20098;-91
2020/12/10 13:49:56;;;;;;;21.35;11.95;;;;;;;;;;3476162;33;20093;-89
2020/12/10 13:53:09;;;;;;;28.25;10.90;;;7.50;99.90;;;;;;3484092;33;20705;-91
2020/12/10 13:55:59;;;;;;;26.50;10.32;;;;;;;;;;3478432;33;20113;-92
2020/12/10 13:59:13;;;;;;;23.52;12.05;;;;;;;;;;3477393;41;20125;-92
2020/12/10 14:02:21;;;;;;;24.00;10.95;;;;;;;;;;3483935;41;20073;-93
2020/12/10 14:06:13;;;;;;;18.95;9.27;;;;;;;;;;3487152;33;20120;-93
2020/12/10 14:09:35;;;;;;;22.30;9.00;;;;;;;;;;3476378;41;20097;-92
2020/12/10 14:12:35;;;;;;;20.30;7.57;;;;;;;;;;3485164;33;20227;-92
2020/12/10 14:15:20;;;;;;;22.60;9.90;;;;;;;;;;3481191;33;20131;-91
2020/12/10 14:19:18;;;;;;;23.88;8.07;;;;;;;;;;3485181;33;20129;-92
2020/12/10 14:22:19;;;;;;;19.05;8.77;;;7.50;99.90;;;;;;3463524;34;20459;-92
2020/12/10 14:25:08;;;;;;;18.45;8.70;;;;;;;;;;3476789;36;20118;-92
2020/12/10 14:28:24;;;;;;;18.10;8.57;;;;;;;;;;3513443;34;20632;-93
2020/12/10 14:32:14;;;;;;;15.70;6.85;;;7.60;99.90;;;;;;3472172;41;20092;-91
2020/12/10 14:39:53;;;;;;;19.48;8.30;;;;;;;;;;3477145;33;20091;-93
2020/12/10 14:46:37;;;;;;;21.13;8.77;;;;;;;;;;3737597;28;20176;-89
2020/12/10 14:56:50;;;;;;;28.80;10.23;;;7.50;99.90;;;;;;3702667;28;20184;-94
2020/12/10 15:36:09;;;;;;;30.45;9.32;;;;;;;;;;3470856;41;20098;-92
2020/12/10 15:39:50;;;;;;;27.98;9.70;;;;;;;;;;3471529;33;20102;-93
2020/12/10 15:43:42;;;;;;;24.92;9.95;;;;;;;;;;3477794;33;20118;-92
2020/12/10 15:47:46;;;;;;;26.60;9.10;;;;;;;;;;3539642;33;20074;-91
2020/12/10 15:51:48;;;;;;;21.02;8.98;;;7.40;99.90;;;;;;3459576;41;20090;-94
2020/12/10 16:07:17;;;;;;;26.90;10.77;;;;;;;;;;3434323;28;20114;-92
2020/12/10 16:10:22;;;;;;;22.20;8.20;;;;;;;;;;3479824;33;20155;-92
2020/12/10 16:17:51;;;;;;;20.13;9.90;;;;;;;;;;3475000;41;20117;-94
2020/12/10 16:21:39;;;;;;;20.67;7.93;;;;;;;;;;3495466;34;20116;-92
2020/12/10 16:25:51;;;;;;;13.27;7.43;;;7.40;99.90;;;;;;3472331;41;20156;-93
2020/12/10 16:30:09;;;;;;;25.90;7.50;;;;;;;;;;3482122;33;20113;-92
2020/12/10 16:36:04;;;;;;;15.95;6.45;;;;;;;;;;3497876;41;20086;-91
2020/12/10 16:38:52;;;;;;;14.15;5.78;;;;;;;;;;3488726;41;20495;-91
2020/12/10 16:41:57;;;;;;;17.50;6.07;;;;;;;;;;3486014;41;20196;-91
2020/12/10 16:44:33;;;;;;;28.98;13.80;;;;;;;;;;3485902;41;20112;-91
2020/12/10 16:47:28;;;;;;;36.70;10.98;;;;;;;;;;3487210;41;20121;-92
2020/12/10 16:50:48;;;;;;;20.27;8.75;;;;;;;;;;3494715;41;20128;-92
2020/12/10 16:53:19;;;;;;;20.60;7.10;;;;;;;;;;3478271;41;20674;-89
2020/12/10 16:56:16;;;;;;;23.65;6.95;;;;;;;;;;3482555;41;20132;-91
2020/12/10 16:59:10;;;;;;;14.48;6.57;;;;;;;;;;3497097;33;20160;-91
2020/12/10 17:02:22;;;;;;;15.77;7.72;;;;;;;;;;3502845;33;20101;-91
2020/12/10 17:05:10;;;;;;;8.00;5.43;;;;;;;;;;3479077;34;20109;-92
2020/12/10 17:07:55;;;;;;;16.05;6.85;;;;;;;;;;3479392;34;20124;-92
2020/12/10 17:10:58;;;;;;;22.92;7.85;;;7.60;99.90;;;;;;3496580;33;20120;-91
2020/12/10 17:13:50;;;;;;;15.45;6.38;;;;;;;;;;3487284;41;20133;-90
2020/12/10 17:17:10;;;;;;;12.05;5.85;;;;;;;;;;3497685;35;20116;-90
2020/12/10 17:20:15;;;;;;;15.63;6.25;;;;;;;;;;3486129;33;20114;-91
2020/12/10 17:23:25;;;;;;;17.60;6.05;;;;;;;;;;3487306;33;20128;-90
2020/12/10 17:29:47;;;;;;;20.00;7.32;;;;;;;;;;3633114;34;20121;-92
2020/12/10 17:33:25;;;;;;;20.75;8.85;;;;;;;;;;3686034;35;20189;-93
2020/12/10 17:40:58;;;;;;;20.52;8.18;;;;;;;;;;3502691;33;20124;-93
2020/12/10 17:49:19;;;;;;;10.88;5.88;;;;;;;;;;3484822;41;20102;-93
2020/12/10 18:43:22;;;;;;;15.32;6.25;;;;;;;;;;3541747;27;20085;-92
2020/12/10 18:47:19;;;;;;;13.10;6.50;;;;;;;;;;3483089;41;20132;-93
2020/12/10 18:57:56;;;;;;;13.98;6.00;;;7.90;99.90;;;;;;1929041;28;20432;-93
2020/12/10 19:01:21;;;;;;;11.57;5.55;;;7.80;99.90;;;;;;3468671;41;20121;-93
2020/12/10 19:04:43;;;;;;;8.38;5.15;;;;;;;;;;3461756;41;20125;-93
2020/12/10 19:08:07;;;;;;;9.90;5.40;;;;;;;;;;3468527;41;20114;-92
2020/12/10 19:11:26;;;;;;;16.98;5.80;;;;;;;;;;3465659;41;20125;-92
2020/12/10 19:14:41;;;;;;;18.00;5.80;;;;;;;;;;3468484;33;20125;-92
2020/12/10 19:18:30;;;;;;;13.00;6.18;;;;;;;;;;3548365;35;20104;-93
2020/12/10 19:32:01;;;;;;;16.60;5.78;;;;;;;;;;3240731;39;20152;-93
2020/12/10 19:34:57;;;;;;;10.95;6.30;;;;;;;;;;3492803;33;20123;-93
2020/12/10 19:38:08;;;;;;;10.82;5.90;;;;;;;;;;3497128;41;20092;-93
2020/12/10 20:12:14;;;;;;;16.10;5.03;;;;;;;;;;4067341;35;20232;-90
2020/12/10 20:15:21;;;;;;;10.82;5.13;;;;;;;;;;4042513;28;20074;-91
2020/12/10 20:18:13;;;;;;;11.75;5.75;;;;;;;;;;4048769;28;20071;-91
2020/12/10 21:40:47;;;;;;;7.50;4.30;;;8.00;99.90;;;;;;4100925;27;20074;-91
2020/12/10 22:07:03;;;;;;;9.07;4.82;;;;;;;;;;4079231;35;20046;-91
2020/12/10 22:09:52;;;;;;;12.65;5.35;;;;;;;;;;4163220;27;20049;-91
2020/12/10 22:20:00;;;;;;;13.52;6.05;;;;;;;;;;4075073;35;20078;-89
2020/12/10 22:43:35;;;;;;;16.42;6.07;;;;;;;;;;4076897;35;20063;-90
2020/12/10 22:46:05;;;;;;;8.90;4.93;;;;;;;;;;4041335;35;20105;-90
2020/12/10 22:49:15;;;;;;;9.07;5.80;;;8.10;99.90;;;;;;4065197;27;20050;-90
2020/12/10 22:52:04;;;;;;;11.32;4.75;;;;;;;;;;4077225;27;20050;-90
2020/12/10 22:54:50;;;;;;;7.50;4.70;;;;;;;;;;4096159;27;20043;-90
2020/12/10 22:58:00;;;;;;;11.45;5.18;;;;;;;;;;4066696;27;20067;-90
2020/12/10 23:00:45;;;;;;;10.82;6.25;;;;;;;;;;4048512;28;20089;-90
2020/12/10 23:03:34;;;;;;;6.15;4.25;;;;;;;;;;4051737;28;20621;-90
2020/12/10 23:06:35;;;;;;;6.78;3.83;;;;;;;;;;4076399;27;20086;-90
2020/12/10 23:09:22;;;;;;;8.05;4.72;;;;;;;;;;4050627;27;20094;-90
2020/12/10 23:12:09;;;;;;;6.13;3.47;;;;;;;;;;4045785;28;20035;-89
2020/12/10 23:14:59;;;;;;;6.43;4.25;;;;;;;;;;4067129;35;20070;-90
2020/12/10 23:18:02;;;;;;;8.73;3.35;;;;;;;;;;4076500;35;20058;-91
2020/12/10 23:20:49;;;;;;;6.00;3.55;;;8.10;99.90;;;;;;4056981;35;20085;-88
2020/12/10 23:23:35;;;;;;;7.82;3.70;;;;;;;;;;4071068;28;20050;-89
2020/12/10 23:26:32;;;;;;;8.52;4.82;;;;;;;;;;4078546;35;20047;-89
2020/12/10 23:29:23;;;;;;;6.40;3.65;;;;;;;;;;4067798;35;20098;-90
2020/12/10 23:32:21;;;;;;;6.28;4.07;;;;;;;;;;4039846;35;20048;-89
2020/12/10 23:39:13;;;;;;;6.78;3.58;;;;;;;;;;4073007;27;20191;-91
2020/12/10 23:45:26;;;;;;;4.72;3.33;;;;;;;;;;4091197;35;20142;-90
2020/12/10 23:48:00;;;;;;;5.13;2.70;;;;;;;;;;4099271;27;20051;-88
2020/12/10 23:51:00;;;;;;;6.93;3.88;;;8.20;99.90;;;;;;4083140;27;20062;-89
2020/12/10 23:53:36;;;;;;;8.38;5.20;;;;;;;;;;4068440;35;20122;-90
2020/12/10 23:56:42;;;;;;;12.15;6.28;;;;;;;;;;4081053;27;20070;-90
2020/12/10 23:59:14;;;;;;;14.38;7.72;;;;;;;;;;4077343;35;20043;-88
